sensor_id;sensor_type;location;lat;lon;timestamp;P1;durP1;ratioP1;P2;durP2;ratioP2
17052;SDS011;8643;48.824;11.422;2022-10-16T00:01:43;4.95;;;3.05;;
17052;SDS011;8643;48.824;11.422;2022-10-16T00:04:12;5.20;;;3.05;;
17052;SDS011;8643;48.824;11.422;2022-10-16T00:06:41;5.63;;;3.28;;
17052;SDS011;8643;48.824;11.422;2022-10-16T00:09:10;5.50;;;2.83;;
17052;SDS011;8643;48.824;11.422;2022-10-16T00:11:40;3.83;;;2.90;;
17052;SDS011;8643;48.824;11.422;2022-10-16T00:14:10;9.77;;;2.97;;
17052;SDS011;8643;48.824;11.422;2022-10-16T00:16:40;5.53;;;3.00;;
17052;SDS011;8643;48.824;11.422;2022-10-16T00:19:09;5.18;;;3.05;;
17052;SDS011;8643;48.824;11.422;2022-10-16T00:21:39;6.05;;;3.17;;
17052;SDS011;8643;48.824;11.422;2022-10-16T00:24:09;5.38;;;3.08;;
17052;SDS011;8643;48.824;11.422;2022-10-16T00:26:39;5.50;;;3.55;;
17052;SDS011;8643;48.824;11.422;2022-10-16T00:29:09;6.30;;;3.20;;
17052;SDS011;8643;48.824;11.422;2022-10-16T00:31:37;7.07;;;3.15;;
17052;SDS011;8643;48.824;11.422;2022-10-16T00:34:06;6.22;;;2.90;;
17052;SDS011;8643;48.824;11.422;2022-10-16T00:36:35;6.03;;;3.08;;
17052;SDS011;8643;48.824;11.422;2022-10-16T00:39:03;8.35;;;3.10;;
17052;SDS011;8643;48.824;11.422;2022-10-16T00:41:32;5.88;;;3.20;;
17052;SDS011;8643;48.824;11.422;2022-10-16T00:44:03;9.40;;;3.03;;
17052;SDS011;8643;48.824;11.422;2022-10-16T00:47:06;4.80;;;2.80;;
17052;SDS011;8643;48.824;11.422;2022-10-16T00:49:36;6.40;;;2.90;;
17052;SDS011;8643;48.824;11.422;2022-10-16T00:52:05;4.32;;;2.90;;
17052;SDS011;8643;48.824;11.422;2022-10-16T00:54:34;3.50;;;2.80;;
17052;SDS011;8643;48.824;11.422;2022-10-16T00:57:04;5.22;;;3.00;;
17052;SDS011;8643;48.824;11.422;2022-10-16T00:59:36;5.20;;;3.03;;
17052;SDS011;8643;48.824;11.422;2022-10-16T01:02:08;3.72;;;2.95;;
17052;SDS011;8643;48.824;11.422;2022-10-16T01:04:38;7.60;;;3.63;;
17052;SDS011;8643;48.824;11.422;2022-10-16T01:07:12;7.63;;;3.40;;
17052;SDS011;8643;48.824;11.422;2022-10-16T01:09:55;11.68;;;3.40;;
17052;SDS011;8643;48.824;11.422;2022-10-16T01:12:36;5.40;;;3.03;;
17052;SDS011;8643;48.824;11.422;2022-10-16T01:15:16;6.78;;;2.95;;
17052;SDS011;8643;48.824;11.422;2022-10-16T01:17:53;7.22;;;2.92;;
17052;SDS011;8643;48.824;11.422;2022-10-16T01:20:29;3.47;;;2.90;;
17052;SDS011;8643;48.824;11.422;2022-10-16T01:23:05;9.95;;;3.28;;
17052;SDS011;8643;48.824;11.422;2022-10-16T01:28:47;4.95;;;3.17;;
17052;SDS011;8643;48.824;11.422;2022-10-16T01:31:22;6.65;;;3.00;;
17052;SDS011;8643;48.824;11.422;2022-10-16T01:33:56;5.07;;;3.33;;
17052;SDS011;8643;48.824;11.422;2022-10-16T01:36:31;13.35;;;3.70;;
17052;SDS011;8643;48.824;11.422;2022-10-16T01:39:06;4.90;;;3.50;;
17052;SDS011;8643;48.824;11.422;2022-10-16T01:41:39;7.88;;;3.67;;
17052;SDS011;8643;48.824;11.422;2022-10-16T01:44:14;5.22;;;3.20;;
17052;SDS011;8643;48.824;11.422;2022-10-16T01:46:48;5.68;;;3.10;;
17052;SDS011;8643;48.824;11.422;2022-10-16T01:49:19;12.88;;;3.40;;
17052;SDS011;8643;48.824;11.422;2022-10-16T01:51:52;8.32;;;3.53;;
17052;SDS011;8643;48.824;11.422;2022-10-16T01:54:24;8.25;;;3.53;;
17052;SDS011;8643;48.824;11.422;2022-10-16T01:56:56;6.25;;;3.20;;
17052;SDS011;8643;48.824;11.422;2022-10-16T01:59:27;7.22;;;3.63;;
17052;SDS011;8643;48.824;11.422;2022-10-16T02:02:01;4.90;;;3.40;;
17052;SDS011;8643;48.824;11.422;2022-10-16T02:04:34;5.50;;;3.42;;
17052;SDS011;8643;48.824;11.422;2022-10-16T02:07:08;8.90;;;3.58;;
17052;SDS011;8643;48.824;11.422;2022-10-16T02:09:38;5.55;;;3.60;;
17052;SDS011;8643;48.824;11.422;2022-10-16T02:12:08;7.20;;;3.42;;
17052;SDS011;8643;48.824;11.422;2022-10-16T02:14:42;10.38;;;3.80;;
17052;SDS011;8643;48.824;11.422;2022-10-16T02:17:11;11.60;;;4.03;;
17052;SDS011;8643;48.824;11.422;2022-10-16T02:19:41;7.05;;;3.90;;
17052;SDS011;8643;48.824;11.422;2022-10-16T02:22:13;4.13;;;3.10;;
17052;SDS011;8643;48.824;11.422;2022-10-16T02:24:52;4.45;;;3.17;;
17052;SDS011;8643;48.824;11.422;2022-10-16T02:27:24;6.13;;;3.17;;
17052;SDS011;8643;48.824;11.422;2022-10-16T02:30:05;4.68;;;3.28;;
17052;SDS011;8643;48.824;11.422;2022-10-16T02:32:38;5.13;;;3.40;;
17052;SDS011;8643;48.824;11.422;2022-10-16T02:35:10;4.28;;;3.40;;
17052;SDS011;8643;48.824;11.422;2022-10-16T02:37:39;15.77;;;4.00;;
17052;SDS011;8643;48.824;11.422;2022-10-16T02:40:10;8.77;;;3.92;;
17052;SDS011;8643;48.824;11.422;2022-10-16T02:42:39;7.55;;;3.47;;
17052;SDS011;8643;48.824;11.422;2022-10-16T02:45:10;4.13;;;3.30;;
17052;SDS011;8643;48.824;11.422;2022-10-16T02:47:39;6.97;;;3.72;;
17052;SDS011;8643;48.824;11.422;2022-10-16T02:50:08;6.65;;;3.55;;
17052;SDS011;8643;48.824;11.422;2022-10-16T02:52:37;6.30;;;3.72;;
17052;SDS011;8643;48.824;11.422;2022-10-16T02:55:05;5.63;;;3.65;;
17052;SDS011;8643;48.824;11.422;2022-10-16T02:57:34;6.40;;;4.00;;
17052;SDS011;8643;48.824;11.422;2022-10-16T03:00:05;6.75;;;3.47;;
17052;SDS011;8643;48.824;11.422;2022-10-16T03:02:36;6.65;;;3.72;;
17052;SDS011;8643;48.824;11.422;2022-10-16T03:05:05;11.25;;;4.03;;
17052;SDS011;8643;48.824;11.422;2022-10-16T03:07:34;7.47;;;3.38;;
17052;SDS011;8643;48.824;11.422;2022-10-16T03:10:03;9.18;;;3.80;;
17052;SDS011;8643;48.824;11.422;2022-10-16T03:12:32;10.85;;;4.00;;
17052;SDS011;8643;48.824;11.422;2022-10-16T03:15:01;7.90;;;4.07;;
17052;SDS011;8643;48.824;11.422;2022-10-16T03:17:31;5.93;;;3.80;;
17052;SDS011;8643;48.824;11.422;2022-10-16T03:20:01;4.38;;;3.67;;
17052;SDS011;8643;48.824;11.422;2022-10-16T03:22:30;8.18;;;4.10;;
17052;SDS011;8643;48.824;11.422;2022-10-16T03:24:59;7.63;;;4.05;;
17052;SDS011;8643;48.824;11.422;2022-10-16T03:27:28;7.63;;;3.97;;
17052;SDS011;8643;48.824;11.422;2022-10-16T03:29:57;9.40;;;3.80;;
17052;SDS011;8643;48.824;11.422;2022-10-16T03:32:26;5.82;;;3.85;;
17052;SDS011;8643;48.824;11.422;2022-10-16T03:34:55;8.15;;;3.65;;
17052;SDS011;8643;48.824;11.422;2022-10-16T03:37:25;8.45;;;3.33;;
17052;SDS011;8643;48.824;11.422;2022-10-16T03:39:54;6.18;;;3.20;;
17052;SDS011;8643;48.824;11.422;2022-10-16T03:42:23;6.90;;;3.63;;
17052;SDS011;8643;48.824;11.422;2022-10-16T03:44:52;6.50;;;3.22;;
17052;SDS011;8643;48.824;11.422;2022-10-16T03:47:20;3.70;;;3.00;;
17052;SDS011;8643;48.824;11.422;2022-10-16T03:49:50;7.70;;;3.60;;
17052;SDS011;8643;48.824;11.422;2022-10-16T03:52:19;6.30;;;3.35;;
17052;SDS011;8643;48.824;11.422;2022-10-16T03:54:49;7.20;;;3.45;;
17052;SDS011;8643;48.824;11.422;2022-10-16T03:57:18;7.03;;;3.22;;
17052;SDS011;8643;48.824;11.422;2022-10-16T03:59:47;5.38;;;3.25;;
17052;SDS011;8643;48.824;11.422;2022-10-16T04:02:16;9.07;;;3.55;;
17052;SDS011;8643;48.824;11.422;2022-10-16T04:04:44;6.15;;;3.83;;
17052;SDS011;8643;48.824;11.422;2022-10-16T04:07:13;5.90;;;3.47;;
17052;SDS011;8643;48.824;11.422;2022-10-16T04:09:41;5.10;;;3.80;;
17052;SDS011;8643;48.824;11.422;2022-10-16T04:12:11;10.63;;;3.60;;
17052;SDS011;8643;48.824;11.422;2022-10-16T04:14:40;9.23;;;4.10;;
17052;SDS011;8643;48.824;11.422;2022-10-16T04:17:09;6.80;;;3.90;;
17052;SDS011;8643;48.824;11.422;2022-10-16T04:19:37;5.75;;;3.72;;
17052;SDS011;8643;48.824;11.422;2022-10-16T04:22:06;5.05;;;3.60;;
17052;SDS011;8643;48.824;11.422;2022-10-16T04:24:35;3.90;;;3.30;;
17052;SDS011;8643;48.824;11.422;2022-10-16T04:27:03;6.57;;;3.28;;
17052;SDS011;8643;48.824;11.422;2022-10-16T04:29:33;3.95;;;3.22;;
17052;SDS011;8643;48.824;11.422;2022-10-16T04:32:02;3.92;;;3.30;;
17052;SDS011;8643;48.824;11.422;2022-10-16T04:34:31;5.93;;;3.35;;
17052;SDS011;8643;48.824;11.422;2022-10-16T04:37:00;5.30;;;3.35;;
17052;SDS011;8643;48.824;11.422;2022-10-16T04:39:28;5.20;;;2.97;;
17052;SDS011;8643;48.824;11.422;2022-10-16T04:41:57;5.63;;;3.08;;
17052;SDS011;8643;48.824;11.422;2022-10-16T04:44:26;9.68;;;3.40;;
17052;SDS011;8643;48.824;11.422;2022-10-16T04:46:56;8.70;;;4.00;;
17052;SDS011;8643;48.824;11.422;2022-10-16T04:49:25;7.32;;;4.00;;
17052;SDS011;8643;48.824;11.422;2022-10-16T04:51:53;7.03;;;2.80;;
17052;SDS011;8643;48.824;11.422;2022-10-16T04:54:22;4.30;;;3.10;;
17052;SDS011;8643;48.824;11.422;2022-10-16T04:56:50;4.47;;;2.97;;
17052;SDS011;8643;48.824;11.422;2022-10-16T04:59:19;8.65;;;2.92;;
17052;SDS011;8643;48.824;11.422;2022-10-16T05:01:49;7.80;;;3.20;;
17052;SDS011;8643;48.824;11.422;2022-10-16T05:04:19;7.57;;;3.10;;
17052;SDS011;8643;48.824;11.422;2022-10-16T05:06:47;3.40;;;2.80;;
17052;SDS011;8643;48.824;11.422;2022-10-16T05:09:16;5.93;;;3.17;;
17052;SDS011;8643;48.824;11.422;2022-10-16T05:11:44;5.47;;;3.03;;
17052;SDS011;8643;48.824;11.422;2022-10-16T05:14:13;9.95;;;3.10;;
17052;SDS011;8643;48.824;11.422;2022-10-16T05:16:42;5.97;;;3.00;;
17052;SDS011;8643;48.824;11.422;2022-10-16T05:19:10;3.80;;;3.00;;
17052;SDS011;8643;48.824;11.422;2022-10-16T05:21:56;5.50;;;3.10;;
17052;SDS011;8643;48.824;11.422;2022-10-16T05:24:24;3.72;;;2.88;;
17052;SDS011;8643;48.824;11.422;2022-10-16T05:26:53;4.25;;;3.00;;
17052;SDS011;8643;48.824;11.422;2022-10-16T05:29:21;6.13;;;3.00;;
17052;SDS011;8643;48.824;11.422;2022-10-16T05:31:51;3.95;;;2.90;;
17052;SDS011;8643;48.824;11.422;2022-10-16T05:34:20;4.65;;;2.53;;
17052;SDS011;8643;48.824;11.422;2022-10-16T05:36:49;11.48;;;3.10;;
17052;SDS011;8643;48.824;11.422;2022-10-16T05:39:19;3.33;;;2.70;;
17052;SDS011;8643;48.824;11.422;2022-10-16T05:41:49;4.60;;;3.10;;
17052;SDS011;8643;48.824;11.422;2022-10-16T05:44:18;6.20;;;3.22;;
17052;SDS011;8643;48.824;11.422;2022-10-16T05:46:47;9.65;;;3.28;;
17052;SDS011;8643;48.824;11.422;2022-10-16T05:49:16;7.13;;;3.10;;
17052;SDS011;8643;48.824;11.422;2022-10-16T05:51:44;3.28;;;2.65;;
17052;SDS011;8643;48.824;11.422;2022-10-16T05:54:13;5.03;;;2.80;;
17052;SDS011;8643;48.824;11.422;2022-10-16T05:56:43;5.82;;;3.10;;
17052;SDS011;8643;48.824;11.422;2022-10-16T05:59:11;6.45;;;2.90;;
17052;SDS011;8643;48.824;11.422;2022-10-16T06:01:40;4.32;;;3.13;;
17052;SDS011;8643;48.824;11.422;2022-10-16T06:04:09;6.18;;;3.00;;
17052;SDS011;8643;48.824;11.422;2022-10-16T06:06:37;4.90;;;3.08;;
17052;SDS011;8643;48.824;11.422;2022-10-16T06:09:06;4.55;;;2.72;;
17052;SDS011;8643;48.824;11.422;2022-10-16T06:11:34;5.10;;;2.85;;
17052;SDS011;8643;48.824;11.422;2022-10-16T06:14:05;5.85;;;3.00;;
17052;SDS011;8643;48.824;11.422;2022-10-16T06:16:36;5.00;;;2.80;;
17052;SDS011;8643;48.824;11.422;2022-10-16T06:19:05;4.75;;;3.28;;
17052;SDS011;8643;48.824;11.422;2022-10-16T06:21:35;4.40;;;3.35;;
17052;SDS011;8643;48.824;11.422;2022-10-16T06:24:04;4.20;;;3.13;;
17052;SDS011;8643;48.824;11.422;2022-10-16T06:26:33;4.22;;;2.92;;
17052;SDS011;8643;48.824;11.422;2022-10-16T06:29:02;5.70;;;2.80;;
17052;SDS011;8643;48.824;11.422;2022-10-16T06:31:32;5.53;;;2.75;;
17052;SDS011;8643;48.824;11.422;2022-10-16T06:34:01;5.20;;;2.75;;
17052;SDS011;8643;48.824;11.422;2022-10-16T06:36:31;6.75;;;2.72;;
17052;SDS011;8643;48.824;11.422;2022-10-16T06:38:59;4.03;;;2.50;;
17052;SDS011;8643;48.824;11.422;2022-10-16T06:41:28;6.60;;;2.80;;
17052;SDS011;8643;48.824;11.422;2022-10-16T06:44:06;3.40;;;2.47;;
17052;SDS011;8643;48.824;11.422;2022-10-16T06:46:39;5.05;;;2.80;;
17052;SDS011;8643;48.824;11.422;2022-10-16T06:49:07;3.97;;;2.83;;
17052;SDS011;8643;48.824;11.422;2022-10-16T06:51:35;5.85;;;2.50;;
17052;SDS011;8643;48.824;11.422;2022-10-16T06:54:09;4.43;;;2.60;;
17052;SDS011;8643;48.824;11.422;2022-10-16T06:56:37;5.03;;;2.80;;
17052;SDS011;8643;48.824;11.422;2022-10-16T06:59:08;7.85;;;2.67;;
17052;SDS011;8643;48.824;11.422;2022-10-16T07:01:38;4.78;;;2.53;;
17052;SDS011;8643;48.824;11.422;2022-10-16T07:04:07;4.38;;;2.38;;
17052;SDS011;8643;48.824;11.422;2022-10-16T07:06:35;3.40;;;2.30;;
17052;SDS011;8643;48.824;11.422;2022-10-16T07:09:05;3.30;;;2.22;;
17052;SDS011;8643;48.824;11.422;2022-10-16T07:11:37;3.42;;;2.60;;
17052;SDS011;8643;48.824;11.422;2022-10-16T07:14:10;4.30;;;2.50;;
17052;SDS011;8643;48.824;11.422;2022-10-16T07:16:44;4.78;;;2.40;;
17052;SDS011;8643;48.824;11.422;2022-10-16T07:19:13;3.53;;;2.55;;
17052;SDS011;8643;48.824;11.422;2022-10-16T07:21:44;4.45;;;2.65;;
17052;SDS011;8643;48.824;11.422;2022-10-16T07:24:13;5.50;;;2.70;;
17052;SDS011;8643;48.824;11.422;2022-10-16T07:26:44;4.72;;;2.88;;
17052;SDS011;8643;48.824;11.422;2022-10-16T07:29:13;4.45;;;2.67;;
17052;SDS011;8643;48.824;11.422;2022-10-16T07:31:46;10.35;;;3.30;;
17052;SDS011;8643;48.824;11.422;2022-10-16T07:34:16;3.75;;;2.90;;
17052;SDS011;8643;48.824;11.422;2022-10-16T07:36:48;10.32;;;3.20;;
17052;SDS011;8643;48.824;11.422;2022-10-16T07:39:16;3.15;;;2.22;;
17052;SDS011;8643;48.824;11.422;2022-10-16T07:41:45;4.80;;;2.28;;
17052;SDS011;8643;48.824;11.422;2022-10-16T07:44:15;4.32;;;2.08;;
17052;SDS011;8643;48.824;11.422;2022-10-16T07:46:46;5.25;;;2.00;;
17052;SDS011;8643;48.824;11.422;2022-10-16T07:49:14;4.60;;;1.92;;
17052;SDS011;8643;48.824;11.422;2022-10-16T07:51:43;4.13;;;1.95;;
17052;SDS011;8643;48.824;11.422;2022-10-16T07:54:11;4.78;;;1.70;;
17052;SDS011;8643;48.824;11.422;2022-10-16T07:56:40;5.40;;;2.00;;
17052;SDS011;8643;48.824;11.422;2022-10-16T07:59:09;3.10;;;1.83;;
17052;SDS011;8643;48.824;11.422;2022-10-16T08:01:38;5.97;;;1.85;;
17052;SDS011;8643;48.824;11.422;2022-10-16T08:04:11;5.72;;;1.98;;
17052;SDS011;8643;48.824;11.422;2022-10-16T08:06:41;2.97;;;2.00;;
17052;SDS011;8643;48.824;11.422;2022-10-16T08:09:10;4.97;;;1.80;;
17052;SDS011;8643;48.824;11.422;2022-10-16T08:11:38;6.22;;;2.05;;
17052;SDS011;8643;48.824;11.422;2022-10-16T08:14:07;3.20;;;1.77;;
17052;SDS011;8643;48.824;11.422;2022-10-16T08:16:36;2.30;;;1.77;;
17052;SDS011;8643;48.824;11.422;2022-10-16T08:19:04;4.57;;;1.80;;
17052;SDS011;8643;48.824;11.422;2022-10-16T08:21:35;2.95;;;1.95;;
17052;SDS011;8643;48.824;11.422;2022-10-16T08:24:03;5.40;;;2.20;;
17052;SDS011;8643;48.824;11.422;2022-10-16T08:26:32;2.40;;;1.67;;
17052;SDS011;8643;48.824;11.422;2022-10-16T08:29:00;3.67;;;2.03;;
17052;SDS011;8643;48.824;11.422;2022-10-16T08:31:29;3.40;;;1.85;;
17052;SDS011;8643;48.824;11.422;2022-10-16T08:33:58;4.20;;;1.90;;
17052;SDS011;8643;48.824;11.422;2022-10-16T08:36:27;3.00;;;1.73;;
17052;SDS011;8643;48.824;11.422;2022-10-16T08:38:57;6.25;;;1.98;;
17052;SDS011;8643;48.824;11.422;2022-10-16T08:41:36;2.38;;;1.75;;
17052;SDS011;8643;48.824;11.422;2022-10-16T08:44:55;3.63;;;1.83;;
17052;SDS011;8643;48.824;11.422;2022-10-16T08:47:43;4.45;;;2.10;;
17052;SDS011;8643;48.824;11.422;2022-10-16T08:50:19;5.20;;;2.05;;
17052;SDS011;8643;48.824;11.422;2022-10-16T08:52:51;8.05;;;2.30;;
17052;SDS011;8643;48.824;11.422;2022-10-16T08:55:29;4.43;;;1.80;;
17052;SDS011;8643;48.824;11.422;2022-10-16T08:58:09;2.50;;;1.77;;
17052;SDS011;8643;48.824;11.422;2022-10-16T09:00:40;4.22;;;1.98;;
17052;SDS011;8643;48.824;11.422;2022-10-16T09:03:13;5.93;;;1.80;;
17052;SDS011;8643;48.824;11.422;2022-10-16T09:05:57;3.67;;;1.67;;
17052;SDS011;8643;48.824;11.422;2022-10-16T09:08:41;6.30;;;1.90;;
17052;SDS011;8643;48.824;11.422;2022-10-16T09:11:23;4.35;;;2.00;;
17052;SDS011;8643;48.824;11.422;2022-10-16T09:14:14;7.30;;;1.85;;
17052;SDS011;8643;48.824;11.422;2022-10-16T09:17:06;5.72;;;2.00;;
17052;SDS011;8643;48.824;11.422;2022-10-16T09:20:13;3.35;;;1.98;;
17052;SDS011;8643;48.824;11.422;2022-10-16T09:22:58;3.58;;;2.08;;
17052;SDS011;8643;48.824;11.422;2022-10-16T09:25:38;5.10;;;1.92;;
17052;SDS011;8643;48.824;11.422;2022-10-16T09:28:09;6.60;;;2.00;;
17052;SDS011;8643;48.824;11.422;2022-10-16T09:30:38;4.25;;;1.98;;
17052;SDS011;8643;48.824;11.422;2022-10-16T09:33:08;5.60;;;1.95;;
17052;SDS011;8643;48.824;11.422;2022-10-16T09:35:39;3.65;;;1.80;;
17052;SDS011;8643;48.824;11.422;2022-10-16T09:38:20;5.85;;;1.67;;
17052;SDS011;8643;48.824;11.422;2022-10-16T09:40:51;6.43;;;1.70;;
17052;SDS011;8643;48.824;11.422;2022-10-16T09:43:30;3.25;;;1.67;;
17052;SDS011;8643;48.824;11.422;2022-10-16T09:46:07;2.13;;;1.60;;
17052;SDS011;8643;48.824;11.422;2022-10-16T09:48:53;4.10;;;1.95;;
17052;SDS011;8643;48.824;11.422;2022-10-16T09:51:26;2.33;;;1.70;;
17052;SDS011;8643;48.824;11.422;2022-10-16T09:53:57;4.95;;;3.00;;
17052;SDS011;8643;48.824;11.422;2022-10-16T09:56:28;2.40;;;1.33;;
17052;SDS011;8643;48.824;11.422;2022-10-16T09:59:01;4.53;;;1.40;;
17052;SDS011;8643;48.824;11.422;2022-10-16T10:01:38;7.63;;;1.50;;
17052;SDS011;8643;48.824;11.422;2022-10-16T10:04:08;3.22;;;1.65;;
17052;SDS011;8643;48.824;11.422;2022-10-16T10:06:41;3.00;;;1.48;;
17052;SDS011;8643;48.824;11.422;2022-10-16T10:09:15;3.17;;;1.60;;
17052;SDS011;8643;48.824;11.422;2022-10-16T10:11:51;3.55;;;1.80;;
17052;SDS011;8643;48.824;11.422;2022-10-16T10:14:31;2.88;;;1.60;;
17052;SDS011;8643;48.824;11.422;2022-10-16T10:17:09;2.55;;;1.50;;
17052;SDS011;8643;48.824;11.422;2022-10-16T10:19:46;6.45;;;1.98;;
17052;SDS011;8643;48.824;11.422;2022-10-16T10:22:19;3.80;;;1.67;;
17052;SDS011;8643;48.824;11.422;2022-10-16T10:28:07;5.20;;;1.83;;
17052;SDS011;8643;48.824;11.422;2022-10-16T10:30:56;2.30;;;1.48;;
17052;SDS011;8643;48.824;11.422;2022-10-16T10:33:33;4.57;;;1.77;;
17052;SDS011;8643;48.824;11.422;2022-10-16T10:36:11;3.35;;;1.60;;
17052;SDS011;8643;48.824;11.422;2022-10-16T10:38:57;5.93;;;1.45;;
17052;SDS011;8643;48.824;11.422;2022-10-16T10:41:36;3.00;;;1.50;;
17052;SDS011;8643;48.824;11.422;2022-10-16T10:44:37;1.75;;;1.35;;
17052;SDS011;8643;48.824;11.422;2022-10-16T10:47:29;4.32;;;1.55;;
17052;SDS011;8643;48.824;11.422;2022-10-16T10:50:17;3.17;;;1.30;;
17052;SDS011;8643;48.824;11.422;2022-10-16T10:52:54;3.40;;;1.38;;
17052;SDS011;8643;48.824;11.422;2022-10-16T10:55:30;4.47;;;1.40;;
17052;SDS011;8643;48.824;11.422;2022-10-16T10:58:15;3.30;;;1.42;;
17052;SDS011;8643;48.824;11.422;2022-10-16T11:01:01;4.45;;;1.85;;
17052;SDS011;8643;48.824;11.422;2022-10-16T11:03:42;1.52;;;1.00;;
17052;SDS011;8643;48.824;11.422;2022-10-16T11:06:35;2.55;;;1.30;;
17052;SDS011;8643;48.824;11.422;2022-10-16T11:09:09;1.10;;;1.00;;
17052;SDS011;8643;48.824;11.422;2022-10-16T11:11:43;3.90;;;1.23;;
17052;SDS011;8643;48.824;11.422;2022-10-16T11:14:18;4.03;;;1.30;;
17052;SDS011;8643;48.824;11.422;2022-10-16T11:16:51;2.75;;;1.17;;
17052;SDS011;8643;48.824;11.422;2022-10-16T11:19:31;3.38;;;1.10;;
17052;SDS011;8643;48.824;11.422;2022-10-16T11:22:07;2.72;;;1.40;;
17052;SDS011;8643;48.824;11.422;2022-10-16T11:24:42;5.25;;;1.30;;
17052;SDS011;8643;48.824;11.422;2022-10-16T11:27:19;2.95;;;1.05;;
17052;SDS011;8643;48.824;11.422;2022-10-16T11:30:04;3.63;;;1.33;;
17052;SDS011;8643;48.824;11.422;2022-10-16T11:32:49;4.18;;;1.30;;
17052;SDS011;8643;48.824;11.422;2022-10-16T11:35:41;2.30;;;1.27;;
17052;SDS011;8643;48.824;11.422;2022-10-16T11:38:18;1.92;;;1.30;;
17052;SDS011;8643;48.824;11.422;2022-10-16T11:40:56;2.95;;;1.40;;
17052;SDS011;8643;48.824;11.422;2022-10-16T11:43:32;1.67;;;1.15;;
17052;SDS011;8643;48.824;11.422;2022-10-16T11:46:08;1.63;;;1.50;;
17052;SDS011;8643;48.824;11.422;2022-10-16T11:48:43;3.03;;;1.02;;
17052;SDS011;8643;48.824;11.422;2022-10-16T11:51:23;3.90;;;1.20;;
17052;SDS011;8643;48.824;11.422;2022-10-16T11:53:59;3.50;;;1.20;;
17052;SDS011;8643;48.824;11.422;2022-10-16T11:56:38;3.78;;;1.55;;
17052;SDS011;8643;48.824;11.422;2022-10-16T11:59:13;2.78;;;1.33;;
17052;SDS011;8643;48.824;11.422;2022-10-16T12:01:50;2.78;;;1.17;;
17052;SDS011;8643;48.824;11.422;2022-10-16T12:04:26;1.65;;;1.20;;
17052;SDS011;8643;48.824;11.422;2022-10-16T12:07:14;3.35;;;1.25;;
17052;SDS011;8643;48.824;11.422;2022-10-16T12:09:49;3.88;;;1.33;;
17052;SDS011;8643;48.824;11.422;2022-10-16T12:12:25;3.35;;;1.20;;
17052;SDS011;8643;48.824;11.422;2022-10-16T12:15:18;2.22;;;1.13;;
17052;SDS011;8643;48.824;11.422;2022-10-16T12:18:20;4.30;;;1.10;;
17052;SDS011;8643;48.824;11.422;2022-10-16T12:20:54;3.50;;;1.30;;
17052;SDS011;8643;48.824;11.422;2022-10-16T12:23:27;2.28;;;1.38;;
17052;SDS011;8643;48.824;11.422;2022-10-16T12:25:55;1.60;;;1.15;;
17052;SDS011;8643;48.824;11.422;2022-10-16T12:28:27;3.17;;;1.05;;
17052;SDS011;8643;48.824;11.422;2022-10-16T12:30:58;3.40;;;1.35;;
17052;SDS011;8643;48.824;11.422;2022-10-16T12:33:29;1.90;;;1.33;;
17052;SDS011;8643;48.824;11.422;2022-10-16T12:36:00;3.20;;;1.40;;
17052;SDS011;8643;48.824;11.422;2022-10-16T12:38:35;2.63;;;1.20;;
17052;SDS011;8643;48.824;11.422;2022-10-16T12:41:23;3.10;;;1.38;;
17052;SDS011;8643;48.824;11.422;2022-10-16T12:43:53;1.90;;;1.30;;
17052;SDS011;8643;48.824;11.422;2022-10-16T12:46:23;2.40;;;1.20;;
17052;SDS011;8643;48.824;11.422;2022-10-16T12:49:06;3.42;;;1.10;;
17052;SDS011;8643;48.824;11.422;2022-10-16T12:51:47;2.33;;;1.15;;
17052;SDS011;8643;48.824;11.422;2022-10-16T12:54:19;2.95;;;1.20;;
17052;SDS011;8643;48.824;11.422;2022-10-16T12:56:57;2.95;;;1.23;;
17052;SDS011;8643;48.824;11.422;2022-10-16T12:59:38;2.25;;;1.30;;
17052;SDS011;8643;48.824;11.422;2022-10-16T13:02:21;5.40;;;1.10;;
17052;SDS011;8643;48.824;11.422;2022-10-16T13:05:21;2.97;;;1.20;;
17052;SDS011;8643;48.824;11.422;2022-10-16T13:08:14;3.42;;;1.30;;
17052;SDS011;8643;48.824;11.422;2022-10-16T13:11:14;2.20;;;1.20;;
17052;SDS011;8643;48.824;11.422;2022-10-16T13:14:03;2.40;;;1.10;;
17052;SDS011;8643;48.824;11.422;2022-10-16T13:16:53;3.47;;;1.15;;
17052;SDS011;8643;48.824;11.422;2022-10-16T13:19:32;1.85;;;1.02;;
17052;SDS011;8643;48.824;11.422;2022-10-16T13:22:13;1.63;;;1.10;;
17052;SDS011;8643;48.824;11.422;2022-10-16T13:24:53;1.20;;;1.10;;
17052;SDS011;8643;48.824;11.422;2022-10-16T13:27:34;4.25;;;1.15;;
17052;SDS011;8643;48.824;11.422;2022-10-16T13:30:11;2.85;;;1.00;;
17052;SDS011;8643;48.824;11.422;2022-10-16T13:32:45;5.10;;;1.20;;
17052;SDS011;8643;48.824;11.422;2022-10-16T13:35:20;2.05;;;1.10;;
17052;SDS011;8643;48.824;11.422;2022-10-16T13:37:50;3.63;;;1.30;;
17052;SDS011;8643;48.824;11.422;2022-10-16T13:40:31;3.03;;;1.08;;
17052;SDS011;8643;48.824;11.422;2022-10-16T13:43:02;4.32;;;1.02;;
17052;SDS011;8643;48.824;11.422;2022-10-16T13:45:30;2.55;;;1.20;;
17052;SDS011;8643;48.824;11.422;2022-10-16T13:48:03;2.35;;;0.95;;
17052;SDS011;8643;48.824;11.422;2022-10-16T13:50:33;2.65;;;1.10;;
17052;SDS011;8643;48.824;11.422;2022-10-16T13:53:05;5.70;;;1.20;;
17052;SDS011;8643;48.824;11.422;2022-10-16T13:55:33;3.75;;;1.20;;
17052;SDS011;8643;48.824;11.422;2022-10-16T13:58:10;3.35;;;1.30;;
17052;SDS011;8643;48.824;11.422;2022-10-16T14:00:42;1.65;;;1.10;;
17052;SDS011;8643;48.824;11.422;2022-10-16T14:03:22;2.90;;;1.15;;
17052;SDS011;8643;48.824;11.422;2022-10-16T14:05:54;1.00;;;1.00;;
17052;SDS011;8643;48.824;11.422;2022-10-16T14:08:25;4.63;;;1.20;;
17052;SDS011;8643;48.824;11.422;2022-10-16T14:10:56;1.58;;;1.10;;
17052;SDS011;8643;48.824;11.422;2022-10-16T14:13:34;4.28;;;1.20;;
17052;SDS011;8643;48.824;11.422;2022-10-16T14:16:05;2.47;;;1.15;;
17052;SDS011;8643;48.824;11.422;2022-10-16T14:18:37;3.75;;;1.10;;
17052;SDS011;8643;48.824;11.422;2022-10-16T14:21:11;1.10;;;1.00;;
17052;SDS011;8643;48.824;11.422;2022-10-16T14:23:43;2.53;;;1.15;;
17052;SDS011;8643;48.824;11.422;2022-10-16T14:26:12;1.55;;;1.20;;
17052;SDS011;8643;48.824;11.422;2022-10-16T14:28:44;2.10;;;1.15;;
17052;SDS011;8643;48.824;11.422;2022-10-16T14:31:28;2.10;;;1.00;;
17052;SDS011;8643;48.824;11.422;2022-10-16T14:33:58;1.27;;;0.98;;
17052;SDS011;8643;48.824;11.422;2022-10-16T14:36:27;2.00;;;1.05;;
17052;SDS011;8643;48.824;11.422;2022-10-16T14:38:57;3.25;;;1.30;;
17052;SDS011;8643;48.824;11.422;2022-10-16T14:41:31;2.22;;;1.15;;
17052;SDS011;8643;48.824;11.422;2022-10-16T14:44:10;2.95;;;1.17;;
17052;SDS011;8643;48.824;11.422;2022-10-16T14:46:41;2.53;;;1.08;;
17052;SDS011;8643;48.824;11.422;2022-10-16T14:49:14;4.68;;;1.10;;
17052;SDS011;8643;48.824;11.422;2022-10-16T14:51:46;2.78;;;1.10;;
17052;SDS011;8643;48.824;11.422;2022-10-16T14:54:16;3.00;;;1.00;;
17052;SDS011;8643;48.824;11.422;2022-10-16T14:56:46;1.92;;;1.10;;
17052;SDS011;8643;48.824;11.422;2022-10-16T14:59:21;1.92;;;1.00;;
17052;SDS011;8643;48.824;11.422;2022-10-16T15:01:55;1.70;;;1.30;;
17052;SDS011;8643;48.824;11.422;2022-10-16T15:04:24;1.58;;;1.20;;
17052;SDS011;8643;48.824;11.422;2022-10-16T15:06:52;2.90;;;1.50;;
17052;SDS011;8643;48.824;11.422;2022-10-16T15:09:21;3.28;;;1.70;;
17052;SDS011;8643;48.824;11.422;2022-10-16T15:11:49;3.63;;;1.60;;
17052;SDS011;8643;48.824;11.422;2022-10-16T15:14:19;1.92;;;1.00;;
17052;SDS011;8643;48.824;11.422;2022-10-16T15:16:48;2.28;;;1.52;;
17052;SDS011;8643;48.824;11.422;2022-10-16T15:19:17;4.20;;;1.15;;
17052;SDS011;8643;48.824;11.422;2022-10-16T15:21:46;4.50;;;1.33;;
17052;SDS011;8643;48.824;11.422;2022-10-16T15:24:15;3.35;;;1.35;;
17052;SDS011;8643;48.824;11.422;2022-10-16T15:26:47;3.60;;;1.10;;
17052;SDS011;8643;48.824;11.422;2022-10-16T15:29:16;5.38;;;1.55;;
17052;SDS011;8643;48.824;11.422;2022-10-16T15:31:46;2.63;;;1.77;;